sensor_id;sensor_type;location;lat;lon;timestamp;temperature;humidity
74081;SHT31;62438;52.228;6.864;2023-01-24T00:00:50;2.70;93.46
74081;SHT31;62438;52.228;6.864;2023-01-24T00:02:51;2.66;93.75
74081;SHT31;62438;52.228;6.864;2023-01-24T00:04:51;2.74;93.26
74081;SHT31;62438;52.228;6.864;2023-01-24T00:06:51;2.68;93.14
74081;SHT31;62438;52.228;6.864;2023-01-24T00:08:52;2.72;92.42
74081;SHT31;62438;52.228;6.864;2023-01-24T00:11:04;2.68;92.37
74081;SHT31;62438;52.228;6.864;2023-01-24T00:13:05;2.70;92.19
74081;SHT31;62438;52.228;6.864;2023-01-24T00:15:06;2.76;92.02
74081;SHT31;62438;52.228;6.864;2023-01-24T00:17:07;2.70;91.78
74081;SHT31;62438;52.228;6.864;2023-01-24T00:19:10;2.74;91.57
74081;SHT31;62438;52.228;6.864;2023-01-24T00:21:13;2.77;90.82
74081;SHT31;62438;52.228;6.864;2023-01-24T00:23:14;2.79;90.98
74081;SHT31;62438;52.228;6.864;2023-01-24T00:25:14;2.77;90.79
74081;SHT31;62438;52.228;6.864;2023-01-24T00:27:15;2.77;91.09
74081;SHT31;62438;52.228;6.864;2023-01-24T00:29:16;2.79;90.61
74081;SHT31;62438;52.228;6.864;2023-01-24T00:31:17;2.80;90.65
74081;SHT31;62438;52.228;6.864;2023-01-24T00:33:17;2.77;89.86
74081;SHT31;62438;52.228;6.864;2023-01-24T00:35:18;2.77;90.29
74081;SHT31;62438;52.228;6.864;2023-01-24T00:37:18;2.83;90.21
74081;SHT31;62438;52.228;6.864;2023-01-24T00:39:18;2.77;90.24
74081;SHT31;62438;52.228;6.864;2023-01-24T00:41:19;2.77;89.25
74081;SHT31;62438;52.228;6.864;2023-01-24T00:43:19;2.83;89.57
74081;SHT31;62438;52.228;6.864;2023-01-24T00:45:20;2.74;89.98
74081;SHT31;62438;52.228;6.864;2023-01-24T00:47:21;2.74;90.08
74081;SHT31;62438;52.228;6.864;2023-01-24T00:49:21;2.73;89.96
74081;SHT31;62438;52.228;6.864;2023-01-24T00:51:22;2.73;90.17
74081;SHT31;62438;52.228;6.864;2023-01-24T00:53:22;2.74;89.20
74081;SHT31;62438;52.228;6.864;2023-01-24T00:55:23;2.79;89.11
74081;SHT31;62438;52.228;6.864;2023-01-24T00:57:23;2.77;89.22
74081;SHT31;62438;52.228;6.864;2023-01-24T00:59:24;2.80;89.03
74081;SHT31;62438;52.228;6.864;2023-01-24T01:01:25;2.74;89.06
74081;SHT31;62438;52.228;6.864;2023-01-24T01:03:25;2.70;89.17
74081;SHT31;62438;52.228;6.864;2023-01-24T01:05:26;2.74;89.44
74081;SHT31;62438;52.228;6.864;2023-01-24T01:07:26;2.70;89.13
74081;SHT31;62438;52.228;6.864;2023-01-24T01:09:27;2.70;88.22
74081;SHT31;62438;52.228;6.864;2023-01-24T01:11:28;2.76;88.63
74081;SHT31;62438;52.228;6.864;2023-01-24T01:13:28;2.72;88.30
74081;SHT31;62438;52.228;6.864;2023-01-24T01:15:29;2.76;88.89
74081;SHT31;62438;52.228;6.864;2023-01-24T01:17:29;2.79;88.42
74081;SHT31;62438;52.228;6.864;2023-01-24T01:19:30;2.72;88.53
74081;SHT31;62438;52.228;6.864;2023-01-24T01:21:30;2.73;88.53
74081;SHT31;62438;52.228;6.864;2023-01-24T01:23:31;2.68;88.11
74081;SHT31;62438;52.228;6.864;2023-01-24T01:25:32;2.68;87.86
74081;SHT31;62438;52.228;6.864;2023-01-24T01:27:32;2.64;88.20
74081;SHT31;62438;52.228;6.864;2023-01-24T01:29:34;2.67;88.30
74081;SHT31;62438;52.228;6.864;2023-01-24T01:31:35;2.68;88.08
74081;SHT31;62438;52.228;6.864;2023-01-24T01:33:35;2.66;88.50
74081;SHT31;62438;52.228;6.864;2023-01-24T01:35:36;2.64;88.19
74081;SHT31;62438;52.228;6.864;2023-01-24T01:37:36;2.60;88.20
74081;SHT31;62438;52.228;6.864;2023-01-24T01:39:37;2.56;88.62
74081;SHT31;62438;52.228;6.864;2023-01-24T01:41:37;2.63;88.59
74081;SHT31;62438;52.228;6.864;2023-01-24T01:43:37;2.60;88.81
74081;SHT31;62438;52.228;6.864;2023-01-24T01:48:04;2.64;89.20
74081;SHT31;62438;52.228;6.864;2023-01-24T01:50:26;2.64;89.25
74081;SHT31;62438;52.228;6.864;2023-01-24T01:52:33;2.64;89.43
74081;SHT31;62438;52.228;6.864;2023-01-24T01:54:38;2.64;88.56
74081;SHT31;62438;52.228;6.864;2023-01-24T01:56:42;2.64;88.41
74081;SHT31;62438;52.228;6.864;2023-01-24T01:58:43;2.50;88.83
74081;SHT31;62438;52.228;6.864;2023-01-24T02:00:44;2.61;88.57
74081;SHT31;62438;52.228;6.864;2023-01-24T02:02:53;2.64;88.72
74081;SHT31;62438;52.228;6.864;2023-01-24T02:04:58;2.60;88.92
74081;SHT31;62438;52.228;6.864;2023-01-24T02:07:05;2.57;89.01
74081;SHT31;62438;52.228;6.864;2023-01-24T02:09:08;2.58;89.08
74081;SHT31;62438;52.228;6.864;2023-01-24T02:11:11;2.58;89.25
74081;SHT31;62438;52.228;6.864;2023-01-24T02:13:31;2.60;89.29
74081;SHT31;62438;52.228;6.864;2023-01-24T02:15:32;2.56;89.60
74081;SHT31;62438;52.228;6.864;2023-01-24T02:17:51;2.49;88.74
74081;SHT31;62438;52.228;6.864;2023-01-24T02:22:06;2.49;88.63
74081;SHT31;62438;52.228;6.864;2023-01-24T02:24:20;2.50;88.46
74081;SHT31;62438;52.228;6.864;2023-01-24T02:26:26;2.45;89.04
74081;SHT31;62438;52.228;6.864;2023-01-24T02:28:28;2.52;88.51
74081;SHT31;62438;52.228;6.864;2023-01-24T02:30:28;2.46;88.26
74081;SHT31;62438;52.228;6.864;2023-01-24T02:32:28;2.45;88.36
74081;SHT31;62438;52.228;6.864;2023-01-24T02:34:29;2.49;88.85
74081;SHT31;62438;52.228;6.864;2023-01-24T02:36:36;2.46;88.66
74081;SHT31;62438;52.228;6.864;2023-01-24T02:38:43;2.53;88.38
74081;SHT31;62438;52.228;6.864;2023-01-24T02:40:46;2.45;88.54
74081;SHT31;62438;52.228;6.864;2023-01-24T02:42:47;2.45;88.60
74081;SHT31;62438;52.228;6.864;2023-01-24T02:47:15;2.40;88.63
74081;SHT31;62438;52.228;6.864;2023-01-24T02:49:15;2.36;88.64
74081;SHT31;62438;52.228;6.864;2023-01-24T02:51:16;2.37;88.54
74081;SHT31;62438;52.228;6.864;2023-01-24T02:53:35;2.42;88.20
74081;SHT31;62438;52.228;6.864;2023-01-24T02:55:36;2.37;88.52
74081;SHT31;62438;52.228;6.864;2023-01-24T02:58:00;2.37;88.51
74081;SHT31;62438;52.228;6.864;2023-01-24T03:00:07;2.39;88.22
74081;SHT31;62438;52.228;6.864;2023-01-24T03:02:07;2.40;88.51
74081;SHT31;62438;52.228;6.864;2023-01-24T03:04:08;2.42;88.52
74081;SHT31;62438;52.228;6.864;2023-01-24T03:06:11;2.39;88.46
74081;SHT31;62438;52.228;6.864;2023-01-24T03:08:12;2.37;88.32
74081;SHT31;62438;52.228;6.864;2023-01-24T03:10:15;2.37;88.43
74081;SHT31;62438;52.228;6.864;2023-01-24T03:12:16;2.42;88.20
74081;SHT31;62438;52.228;6.864;2023-01-24T03:14:35;2.36;88.52
74081;SHT31;62438;52.228;6.864;2023-01-24T03:16:54;2.30;88.62
74081;SHT31;62438;52.228;6.864;2023-01-24T03:19:13;2.33;88.84
74081;SHT31;62438;52.228;6.864;2023-01-24T03:21:32;2.33;88.74
74081;SHT31;62438;52.228;6.864;2023-01-24T03:23:51;2.30;88.81
74081;SHT31;62438;52.228;6.864;2023-01-24T03:26:10;2.32;88.86
74081;SHT31;62438;52.228;6.864;2023-01-24T03:28:28;2.36;88.84
74081;SHT31;62438;52.228;6.864;2023-01-24T03:30:47;2.32;88.85
74081;SHT31;62438;52.228;6.864;2023-01-24T03:33:06;2.39;88.72
74081;SHT31;62438;52.228;6.864;2023-01-24T03:35:25;2.35;88.92
74081;SHT31;62438;52.228;6.864;2023-01-24T03:37:26;2.37;88.96
74081;SHT31;62438;52.228;6.864;2023-01-24T03:39:46;2.37;88.60
74081;SHT31;62438;52.228;6.864;2023-01-24T03:41:59;2.43;88.52
74081;SHT31;62438;52.228;6.864;2023-01-24T03:43:59;2.32;89.38
74081;SHT31;62438;52.228;6.864;2023-01-24T03:45:59;2.36;89.45
74081;SHT31;62438;52.228;6.864;2023-01-24T03:48:05;2.35;89.25
74081;SHT31;62438;52.228;6.864;2023-01-24T03:50:09;2.35;89.46
74081;SHT31;62438;52.228;6.864;2023-01-24T03:52:28;2.42;89.11
74081;SHT31;62438;52.228;6.864;2023-01-24T03:54:29;2.37;89.19
74081;SHT31;62438;52.228;6.864;2023-01-24T03:56:29;2.33;89.42
74081;SHT31;62438;52.228;6.864;2023-01-24T03:58:30;2.28;89.46
74081;SHT31;62438;52.228;6.864;2023-01-24T04:00:31;2.28;89.36
74081;SHT31;62438;52.228;6.864;2023-01-24T04:02:32;2.32;89.17
74081;SHT31;62438;52.228;6.864;2023-01-24T04:04:33;2.29;89.20
74081;SHT31;62438;52.228;6.864;2023-01-24T04:06:52;2.29;89.31
74081;SHT31;62438;52.228;6.864;2023-01-24T04:08:52;2.29;89.52
74081;SHT31;62438;52.228;6.864;2023-01-24T04:10:55;2.25;89.61
74081;SHT31;62438;52.228;6.864;2023-01-24T04:12:56;2.24;89.73
74081;SHT31;62438;52.228;6.864;2023-01-24T04:14:56;2.21;90.02
74081;SHT31;62438;52.228;6.864;2023-01-24T04:16:57;2.30;90.00
74081;SHT31;62438;52.228;6.864;2023-01-24T04:18:57;2.28;89.44
74081;SHT31;62438;52.228;6.864;2023-01-24T04:21:01;2.16;89.39
74081;SHT31;62438;52.228;6.864;2023-01-24T04:23:06;2.29;89.34
74081;SHT31;62438;52.228;6.864;2023-01-24T04:25:08;2.30;89.09
74081;SHT31;62438;52.228;6.864;2023-01-24T04:27:09;2.25;89.34
74081;SHT31;62438;52.228;6.864;2023-01-24T04:29:09;2.21;89.53
74081;SHT31;62438;52.228;6.864;2023-01-24T04:31:09;2.19;89.85
74081;SHT31;62438;52.228;6.864;2023-01-24T04:33:10;2.14;90.05
74081;SHT31;62438;52.228;6.864;2023-01-24T04:35:16;2.18;89.96
74081;SHT31;62438;52.228;6.864;2023-01-24T04:37:17;2.22;90.12
74081;SHT31;62438;52.228;6.864;2023-01-24T04:39:17;2.22;90.28
74081;SHT31;62438;52.228;6.864;2023-01-24T04:41:17;2.15;89.67
74081;SHT31;62438;52.228;6.864;2023-01-24T04:43:18;2.19;89.93
74081;SHT31;62438;52.228;6.864;2023-01-24T04:45:18;2.15;89.94
74081;SHT31;62438;52.228;6.864;2023-01-24T04:47:19;2.18;90.07
74081;SHT31;62438;52.228;6.864;2023-01-24T04:49:19;2.18;89.73
74081;SHT31;62438;52.228;6.864;2023-01-24T04:51:20;2.09;89.44
74081;SHT31;62438;52.228;6.864;2023-01-24T04:53:20;2.09;89.62
74081;SHT31;62438;52.228;6.864;2023-01-24T04:55:20;2.19;89.60
74081;SHT31;62438;52.228;6.864;2023-01-24T04:57:21;2.12;89.44
74081;SHT31;62438;52.228;6.864;2023-01-24T04:59:21;2.16;89.40
74081;SHT31;62438;52.228;6.864;2023-01-24T05:01:22;2.14;89.72
74081;SHT31;62438;52.228;6.864;2023-01-24T05:03:22;2.14;89.70
74081;SHT31;62438;52.228;6.864;2023-01-24T05:05:23;2.15;89.63
74081;SHT31;62438;52.228;6.864;2023-01-24T05:07:23;2.09;90.03
74081;SHT31;62438;52.228;6.864;2023-01-24T05:09:24;2.08;90.20
74081;SHT31;62438;52.228;6.864;2023-01-24T05:11:25;2.04;90.06
74081;SHT31;62438;52.228;6.864;2023-01-24T05:13:25;2.06;89.92
74081;SHT31;62438;52.228;6.864;2023-01-24T05:15:26;2.08;89.69
74081;SHT31;62438;52.228;6.864;2023-01-24T05:17:27;2.02;89.80
74081;SHT31;62438;52.228;6.864;2023-01-24T05:19:27;2.11;89.68
74081;SHT31;62438;52.228;6.864;2023-01-24T05:21:28;2.12;89.62
74081;SHT31;62438;52.228;6.864;2023-01-24T05:23:28;2.06;89.80
74081;SHT31;62438;52.228;6.864;2023-01-24T05:25:29;2.06;89.77
74081;SHT31;62438;52.228;6.864;2023-01-24T05:27:29;2.08;89.82
74081;SHT31;62438;52.228;6.864;2023-01-24T05:29:29;2.14;89.68
74081;SHT31;62438;52.228;6.864;2023-01-24T05:31:30;2.05;89.59
74081;SHT31;62438;52.228;6.864;2023-01-24T05:33:30;2.05;89.72
74081;SHT31;62438;52.228;6.864;2023-01-24T05:35:31;2.09;89.61
74081;SHT31;62438;52.228;6.864;2023-01-24T05:37:31;2.09;89.73
74081;SHT31;62438;52.228;6.864;2023-01-24T05:39:31;2.12;89.53
74081;SHT31;62438;52.228;6.864;2023-01-24T05:41:32;2.04;89.60
74081;SHT31;62438;52.228;6.864;2023-01-24T05:43:33;2.01;90.04
74081;SHT31;62438;52.228;6.864;2023-01-24T05:45:34;1.99;90.22
74081;SHT31;62438;52.228;6.864;2023-01-24T05:47:34;2.08;90.01
74081;SHT31;62438;52.228;6.864;2023-01-24T05:49:35;2.08;90.13
74081;SHT31;62438;52.228;6.864;2023-01-24T05:51:35;2.05;89.79
74081;SHT31;62438;52.228;6.864;2023-01-24T05:53:37;1.99;89.58
74081;SHT31;62438;52.228;6.864;2023-01-24T05:55:38;1.99;89.73
74081;SHT31;62438;52.228;6.864;2023-01-24T05:57:39;2.02;90.06
74081;SHT31;62438;52.228;6.864;2023-01-24T05:59:40;2.02;89.83
74081;SHT31;62438;52.228;6.864;2023-01-24T06:01:40;2.05;89.93
74081;SHT31;62438;52.228;6.864;2023-01-24T06:03:41;2.06;89.86
74081;SHT31;62438;52.228;6.864;2023-01-24T06:05:49;2.12;89.99
74081;SHT31;62438;52.228;6.864;2023-01-24T06:07:50;2.08;89.91
74081;SHT31;62438;52.228;6.864;2023-01-24T06:09:50;2.08;90.10
74081;SHT31;62438;52.228;6.864;2023-01-24T06:11:51;2.05;90.00
74081;SHT31;62438;52.228;6.864;2023-01-24T06:13:53;2.02;90.38
74081;SHT31;62438;52.228;6.864;2023-01-24T06:16:00;2.01;90.49
74081;SHT31;62438;52.228;6.864;2023-01-24T06:18:01;2.09;90.22
74081;SHT31;62438;52.228;6.864;2023-01-24T06:20:02;2.05;90.10
74081;SHT31;62438;52.228;6.864;2023-01-24T06:22:44;1.99;90.78
74081;SHT31;62438;52.228;6.864;2023-01-24T06:24:45;2.02;90.56
74081;SHT31;62438;52.228;6.864;2023-01-24T06:26:47;1.98;90.31
74081;SHT31;62438;52.228;6.864;2023-01-24T06:28:48;2.01;90.15
74081;SHT31;62438;52.228;6.864;2023-01-24T06:31:04;2.02;90.40
74081;SHT31;62438;52.228;6.864;2023-01-24T06:33:33;2.06;90.44
74081;SHT31;62438;52.228;6.864;2023-01-24T06:38:24;2.12;90.19
74081;SHT31;62438;52.228;6.864;2023-01-24T06:40:25;2.08;90.34
74081;SHT31;62438;52.228;6.864;2023-01-24T06:42:26;2.11;90.36
74081;SHT31;62438;52.228;6.864;2023-01-24T06:44:26;1.99;90.02
74081;SHT31;62438;52.228;6.864;2023-01-24T06:46:27;2.09;90.39
74081;SHT31;62438;52.228;6.864;2023-01-24T06:48:27;2.05;90.15
74081;SHT31;62438;52.228;6.864;2023-01-24T06:50:28;2.11;89.93
74081;SHT31;62438;52.228;6.864;2023-01-24T06:52:31;2.02;90.05
74081;SHT31;62438;52.228;6.864;2023-01-24T06:54:33;1.95;90.29
74081;SHT31;62438;52.228;6.864;2023-01-24T06:56:33;2.04;90.97
74081;SHT31;62438;52.228;6.864;2023-01-24T06:58:34;1.98;90.44
74081;SHT31;62438;52.228;6.864;2023-01-24T07:00:34;2.02;90.26
74081;SHT31;62438;52.228;6.864;2023-01-24T07:02:35;1.98;90.46
74081;SHT31;62438;52.228;6.864;2023-01-24T07:04:35;1.99;90.69
74081;SHT31;62438;52.228;6.864;2023-01-24T07:06:36;2.02;90.59
74081;SHT31;62438;52.228;6.864;2023-01-24T07:08:37;2.04;90.87
74081;SHT31;62438;52.228;6.864;2023-01-24T07:10:37;2.02;90.88
74081;SHT31;62438;52.228;6.864;2023-01-24T07:12:41;2.04;90.77
74081;SHT31;62438;52.228;6.864;2023-01-24T07:14:42;2.04;90.28
74081;SHT31;62438;52.228;6.864;2023-01-24T07:16:43;2.01;90.50
74081;SHT31;62438;52.228;6.864;2023-01-24T07:18:44;2.01;90.43
74081;SHT31;62438;52.228;6.864;2023-01-24T07:20:45;1.97;90.13
74081;SHT31;62438;52.228;6.864;2023-01-24T07:22:46;2.01;90.58
74081;SHT31;62438;52.228;6.864;2023-01-24T07:24:46;1.99;90.00
74081;SHT31;62438;52.228;6.864;2023-01-24T07:26:47;1.97;89.86
74081;SHT31;62438;52.228;6.864;2023-01-24T07:28:51;1.97;89.77
74081;SHT31;62438;52.228;6.864;2023-01-24T07:30:52;2.02;89.72
74081;SHT31;62438;52.228;6.864;2023-01-24T07:32:53;1.98;89.83
74081;SHT31;62438;52.228;6.864;2023-01-24T07:34:53;2.09;89.30
74081;SHT31;62438;52.228;6.864;2023-01-24T07:36:54;2.02;89.53
74081;SHT31;62438;52.228;6.864;2023-01-24T07:38:57;1.99;89.37
74081;SHT31;62438;52.228;6.864;2023-01-24T07:40:57;2.01;89.63
74081;SHT31;62438;52.228;6.864;2023-01-24T07:43:01;1.98;89.59
74081;SHT31;62438;52.228;6.864;2023-01-24T07:45:02;2.01;89.73
74081;SHT31;62438;52.228;6.864;2023-01-24T07:47:03;2.02;89.39
74081;SHT31;62438;52.228;6.864;2023-01-24T07:49:03;1.98;89.93
74081;SHT31;62438;52.228;6.864;2023-01-24T07:51:04;1.97;89.90
74081;SHT31;62438;52.228;6.864;2023-01-24T07:53:04;1.95;90.13
74081;SHT31;62438;52.228;6.864;2023-01-24T07:55:05;2.04;89.89
74081;SHT31;62438;52.228;6.864;2023-01-24T07:57:06;2.04;89.69
74081;SHT31;62438;52.228;6.864;2023-01-24T07:59:08;1.97;89.66
74081;SHT31;62438;52.228;6.864;2023-01-24T08:01:08;1.95;89.60
74081;SHT31;62438;52.228;6.864;2023-01-24T08:03:08;2.04;89.61
74081;SHT31;62438;52.228;6.864;2023-01-24T08:05:10;2.01;88.89
74081;SHT31;62438;52.228;6.864;2023-01-24T08:07:10;1.97;88.87
74081;SHT31;62438;52.228;6.864;2023-01-24T08:09:17;1.95;89.22
74081;SHT31;62438;52.228;6.864;2023-01-24T08:11:17;1.98;89.24
74081;SHT31;62438;52.228;6.864;2023-01-24T08:13:18;1.98;88.93
74081;SHT31;62438;52.228;6.864;2023-01-24T08:15:18;2.02;88.77
74081;SHT31;62438;52.228;6.864;2023-01-24T08:17:19;2.05;89.06
74081;SHT31;62438;52.228;6.864;2023-01-24T08:19:19;2.04;89.12
74081;SHT31;62438;52.228;6.864;2023-01-24T08:21:19;2.08;88.64
74081;SHT31;62438;52.228;6.864;2023-01-24T08:23:20;2.04;89.03
74081;SHT31;62438;52.228;6.864;2023-01-24T08:25:20;2.08;88.64
74081;SHT31;62438;52.228;6.864;2023-01-24T08:27:21;2.14;88.83
74081;SHT31;62438;52.228;6.864;2023-01-24T08:29:21;2.06;88.39
74081;SHT31;62438;52.228;6.864;2023-01-24T08:31:21;2.06;88.49
74081;SHT31;62438;52.228;6.864;2023-01-24T08:33:22;2.14;88.11
74081;SHT31;62438;52.228;6.864;2023-01-24T08:35:23;2.14;88.29
74081;SHT31;62438;52.228;6.864;2023-01-24T08:37:23;2.11;88.32
74081;SHT31;62438;52.228;6.864;2023-01-24T08:39:23;2.21;87.95
74081;SHT31;62438;52.228;6.864;2023-01-24T08:41:24;2.15;88.43
74081;SHT31;62438;52.228;6.864;2023-01-24T08:43:24;2.18;88.56
74081;SHT31;62438;52.228;6.864;2023-01-24T08:45:25;2.14;88.82
74081;SHT31;62438;52.228;6.864;2023-01-24T08:47:25;2.14;88.82
74081;SHT31;62438;52.228;6.864;2023-01-24T08:49:25;2.14;88.36
74081;SHT31;62438;52.228;6.864;2023-01-24T08:51:26;2.12;88.51
74081;SHT31;62438;52.228;6.864;2023-01-24T08:53:28;2.12;88.50
74081;SHT31;62438;52.228;6.864;2023-01-24T08:55:28;2.18;88.69
74081;SHT31;62438;52.228;6.864;2023-01-24T08:57:28;2.29;88.08
74081;SHT31;62438;52.228;6.864;2023-01-24T08:59:29;2.24;88.16
74081;SHT31;62438;52.228;6.864;2023-01-24T09:01:30;2.25;88.44
74081;SHT31;62438;52.228;6.864;2023-01-24T09:03:32;2.18;88.58
74081;SHT31;62438;52.228;6.864;2023-01-24T09:05:32;2.21;88.45
74081;SHT31;62438;52.228;6.864;2023-01-24T09:07:34;2.21;88.76
74081;SHT31;62438;52.228;6.864;2023-01-24T09:09:36;2.37;89.09
74081;SHT31;62438;52.228;6.864;2023-01-24T09:11:36;2.32;88.19
74081;SHT31;62438;52.228;6.864;2023-01-24T09:13:37;2.37;88.14
74081;SHT31;62438;52.228;6.864;2023-01-24T09:15:38;2.36;88.05
74081;SHT31;62438;52.228;6.864;2023-01-24T09:17:38;2.36;88.02
74081;SHT31;62438;52.228;6.864;2023-01-24T09:19:40;2.36;88.09
74081;SHT31;62438;52.228;6.864;2023-01-24T09:21:40;2.36;88.06
74081;SHT31;62438;52.228;6.864;2023-01-24T09:23:40;2.26;88.17
74081;SHT31;62438;52.228;6.864;2023-01-24T09:25:41;2.19;88.40
74081;SHT31;62438;52.228;6.864;2023-01-24T09:27:42;2.24;88.60
74081;SHT31;62438;52.228;6.864;2023-01-24T09:29:42;2.28;88.36
74081;SHT31;62438;52.228;6.864;2023-01-24T09:31:42;2.21;88.64
74081;SHT31;62438;52.228;6.864;2023-01-24T09:33:43;2.22;88.73
74081;SHT31;62438;52.228;6.864;2023-01-24T09:36:04;2.18;88.72
74081;SHT31;62438;52.228;6.864;2023-01-24T09:38:04;2.25;88.92
74081;SHT31;62438;52.228;6.864;2023-01-24T09:40:16;2.30;88.91
74081;SHT31;62438;52.228;6.864;2023-01-24T09:44:38;2.24;88.87
74081;SHT31;62438;52.228;6.864;2023-01-24T09:46:46;2.26;88.95
74081;SHT31;62438;52.228;6.864;2023-01-24T09:48:49;2.25;88.37
74081;SHT31;62438;52.228;6.864;2023-01-24T09:50:54;2.22;88.87
74081;SHT31;62438;52.228;6.864;2023-01-24T09:52:56;2.28;88.81
74081;SHT31;62438;52.228;6.864;2023-01-24T09:55:08;2.39;88.60
74081;SHT31;62438;52.228;6.864;2023-01-24T09:57:22;2.40;88.41
74081;SHT31;62438;52.228;6.864;2023-01-24T09:59:42;2.50;88.42
74081;SHT31;62438;52.228;6.864;2023-01-24T10:01:43;2.49;88.19
74081;SHT31;62438;52.228;6.864;2023-01-24T10:03:44;2.47;87.42
74081;SHT31;62438;52.228;6.864;2023-01-24T10:05:55;2.45;87.56
74081;SHT31;62438;52.228;6.864;2023-01-24T10:10:49;2.35;87.85
74081;SHT31;62438;52.228;6.864;2023-01-24T10:15:36;2.46;88.22
74081;SHT31;62438;52.228;6.864;2023-01-24T10:20:27;2.56;87.20
74081;SHT31;62438;52.228;6.864;2023-01-24T10:25:36;2.45;86.98
74081;SHT31;62438;52.228;6.864;2023-01-24T10:27:38;2.39;87.10
74081;SHT31;62438;52.228;6.864;2023-01-24T10:29:41;2.29;87.27
74081;SHT31;62438;52.228;6.864;2023-01-24T10:32:00;2.35;87.05
74081;SHT31;62438;52.228;6.864;2023-01-24T10:36:37;2.29;86.76
74081;SHT31;62438;52.228;6.864;2023-01-24T10:38:43;2.39;86.75
74081;SHT31;62438;52.228;6.864;2023-01-24T10:40:55;2.35;87.16
74081;SHT31;62438;52.228;6.864;2023-01-24T10:42:55;2.25;86.94
74081;SHT31;62438;52.228;6.864;2023-01-24T10:45:01;2.37;87.32
74081;SHT31;62438;52.228;6.864;2023-01-24T10:49:29;2.37;87.02
74081;SHT31;62438;52.228;6.864;2023-01-24T10:51:31;2.39;87.53
74081;SHT31;62438;52.228;6.864;2023-01-24T10:53:32;2.43;86.88
74081;SHT31;62438;52.228;6.864;2023-01-24T10:55:35;2.50;86.22
74081;SHT31;62438;52.228;6.864;2023-01-24T10:59:41;2.46;86.56
74081;SHT31;62438;52.228;6.864;2023-01-24T11:01:45;2.54;86.76
74081;SHT31;62438;52.228;6.864;2023-01-24T11:03:50;2.42;86.52
74081;SHT31;62438;52.228;6.864;2023-01-24T11:05:53;2.43;86.79
74081;SHT31;62438;52.228;6.864;2023-01-24T11:07:59;2.43;86.88
74081;SHT31;62438;52.228;6.864;2023-01-24T11:10:01;2.45;87.23
74081;SHT31;62438;52.228;6.864;2023-01-24T11:12:01;2.43;87.03
74081;SHT31;62438;52.228;6.864;2023-01-24T11:14:02;2.49;87.50
74081;SHT31;62438;52.228;6.864;2023-01-24T11:18:25;2.47;86.98
74081;SHT31;62438;52.228;6.864;2023-01-24T11:20:33;2.50;86.84
74081;SHT31;62438;52.228;6.864;2023-01-24T11:22:33;2.49;86.67
74081;SHT31;62438;52.228;6.864;2023-01-24T11:24:42;2.43;86.81
74081;SHT31;62438;52.228;6.864;2023-01-24T11:27:13;2.45;86.47
74081;SHT31;62438;52.228;6.864;2023-01-24T11:29:16;2.36;86.49
74081;SHT31;62438;52.228;6.864;2023-01-24T11:31:25;2.43;86.86
74081;SHT31;62438;52.228;6.864;2023-01-24T11:35:45;2.45;86.44
74081;SHT31;62438;52.228;6.864;2023-01-24T11:40:27;2.47;86.98
74081;SHT31;62438;52.228;6.864;2023-01-24T11:44:52;2.35;86.79
74081;SHT31;62438;52.228;6.864;2023-01-24T11:49:31;2.52;86.73
74081;SHT31;62438;52.228;6.864;2023-01-24T12:03:49;2.63;86.05
74081;SHT31;62438;52.228;6.864;2023-01-24T12:12:37;2.54;86.58
74081;SHT31;62438;52.228;6.864;2023-01-24T12:14:49;2.54;86.49
74081;SHT31;62438;52.228;6.864;2023-01-24T12:20:02;2.40;86.66
74081;SHT31;62438;52.228;6.864;2023-01-24T12:22:16;2.56;86.97
74081;SHT31;62438;52.228;6.864;2023-01-24T12:24:23;2.57;87.19
74081;SHT31;62438;52.228;6.864;2023-01-24T12:26:30;2.60;86.40
74081;SHT31;62438;52.228;6.864;2023-01-24T12:29:09;2.53;86.63
74081;SHT31;62438;52.228;6.864;2023-01-24T12:31:22;2.50;86.18
74081;SHT31;62438;52.228;6.864;2023-01-24T12:33:40;2.52;86.29
74081;SHT31;62438;52.228;6.864;2023-01-24T12:35:45;2.53;86.54
74081;SHT31;62438;52.228;6.864;2023-01-24T12:44:41;2.45;86.35
74081;SHT31;62438;52.228;6.864;2023-01-24T12:46:54;2.39;86.50
74081;SHT31;62438;52.228;6.864;2023-01-24T12:51:26;2.36;87.11
74081;SHT31;62438;52.228;6.864;2023-01-24T12:53:41;2.39;87.28
74081;SHT31;62438;52.228;6.864;2023-01-24T12:58:27;2.42;87.05
74081;SHT31;62438;52.228;6.864;2023-01-24T13:12:36;2.52;86.98
74081;SHT31;62438;52.228;6.864;2023-01-24T13:14:40;2.56;86.78
74081;SHT31;62438;52.228;6.864;2023-01-24T13:29:18;2.40;87.03
74081;SHT31;62438;52.228;6.864;2023-01-24T13:31:50;2.40;87.06
74081;SHT31;62438;52.228;6.864;2023-01-24T13:33:55;2.42;86.79
74081;SHT31;62438;52.228;6.864;2023-01-24T13:35:57;2.39;87.29
74081;SHT31;62438;52.228;6.864;2023-01-24T13:38:06;2.46;87.03
74081;SHT31;62438;52.228;6.864;2023-01-24T13:42:20;2.40;86.79
74081;SHT31;62438;52.228;6.864;2023-01-24T13:44:29;2.43;86.91
74081;SHT31;62438;52.228;6.864;2023-01-24T13:48:55;2.32;86.84
74081;SHT31;62438;52.228;6.864;2023-01-24T13:56:02;2.33;86.44
74081;SHT31;62438;52.228;6.864;2023-01-24T14:02:28;2.22;86.92
74081;SHT31;62438;52.228;6.864;2023-01-24T14:04:39;2.26;87.08
74081;SHT31;62438;52.228;6.864;2023-01-24T14:06:45;2.24;87.02
74081;SHT31;62438;52.228;6.864;2023-01-24T14:08:49;2.24;87.20
74081;SHT31;62438;52.228;6.864;2023-01-24T14:12:56;2.33;86.93
74081;SHT31;62438;52.228;6.864;2023-01-24T14:17:04;2.33;86.79
74081;SHT31;62438;52.228;6.864;2023-01-24T14:21:19;2.14;87.31
74081;SHT31;62438;52.228;6.864;2023-01-24T14:23:22;2.12;87.49
74081;SHT31;62438;52.228;6.864;2023-01-24T14:25:37;2.09;87.47
74081;SHT31;62438;52.228;6.864;2023-01-24T14:27:46;2.09;87.38
74081;SHT31;62438;52.228;6.864;2023-01-24T14:29:49;2.09;87.73
74081;SHT31;62438;52.228;6.864;2023-01-24T14:31:52;2.06;87.40
74081;SHT31;62438;52.228;6.864;2023-01-24T14:34:04;2.16;87.69
74081;SHT31;62438;52.228;6.864;2023-01-24T14:36:34;2.22;87.08
74081;SHT31;62438;52.228;6.864;2023-01-24T14:38:35;2.25;87.16
74081;SHT31;62438;52.228;6.864;2023-01-24T14:40:38;2.33;86.77
74081;SHT31;62438;52.228;6.864;2023-01-24T14:42:39;2.09;87.16
74081;SHT31;62438;52.228;6.864;2023-01-24T14:44:53;2.12;87.67
74081;SHT31;62438;52.228;6.864;2023-01-24T14:49:28;2.11;87.66
74081;SHT31;62438;52.228;6.864;2023-01-24T14:51:29;2.11;87.63
74081;SHT31;62438;52.228;6.864;2023-01-24T14:53:31;2.11;87.59
74081;SHT31;62438;52.228;6.864;2023-01-24T14:55:37;2.15;88.13
74081;SHT31;62438;52.228;6.864;2023-01-24T14:57:42;2.15;87.84
74081;SHT31;62438;52.228;6.864;2023-01-24T14:59:42;2.30;87.46
74081;SHT31;62438;52.228;6.864;2023-01-24T15:01:45;2.15;87.97
74081;SHT31;62438;52.228;6.864;2023-01-24T15:03:48;2.12;87.95
74081;SHT31;62438;52.228;6.864;2023-01-24T15:06:06;2.08;87.69
74081;SHT31;62438;52.228;6.864;2023-01-24T15:08:14;2.02;87.62
74081;SHT31;62438;52.228;6.864;2023-01-24T15:10:15;2.12;87.52
74081;SHT31;62438;52.228;6.864;2023-01-24T15:12:28;2.14;87.89
74081;SHT31;62438;52.228;6.864;2023-01-24T15:14:29;2.05;87.99
74081;SHT31;62438;52.228;6.864;2023-01-24T15:16:38;2.02;88.17
74081;SHT31;62438;52.228;6.864;2023-01-24T15:18:43;1.99;88.02